Time;durP1;ratioP1;P1;durP2;ratioP2;P2;SDS_P1;SDS_P2;PMS_P1;PMS_P2;Temp;Humidity;BMP_temperature;BMP_pressure;BME280_temperature;BME280_humidity;BME280_pressure;Samples;Min_cycle;Max_cycle;Signal;HPM_P1;HPM_P2
2022/10/25 06:54:40;;;;;;;4.20;1.42;;;;;;;13.89;78.94;96821.53;2084254;28;20577;-69
2022/10/25 06:55:43;;;;;;;6.32;1.70;;;;;;;14.04;78.80;96833.81;2083140;28;20292;-69
2022/10/25 06:56:45;;;;;;;6.10;1.45;;;;;;;14.09;78.95;96830.06;2082326;28;20201;-69
2022/10/25 06:57:46;;;;;;;4.28;1.67;;;;;;;14.21;78.55;96835.47;2082193;28;20290;-69
2022/10/25 06:58:48;;;;;;;9.73;1.40;;;;;;;14.43;77.96;96831.63;2081114;28;20248;-69
2022/10/25 07:11:02;;;;;;;15.50;2.42;;;;;;;15.85;72.58;96853.13;2070392;27;1384958;-66
2022/10/25 07:12:04;;;;;;;6.00;2.13;;;;;;;15.91;71.52;96847.44;2116024;27;20293;-66
2022/10/25 07:13:12;;;;;;;4.45;1.65;;;;;;;15.29;73.21;96838.91;2116992;27;20199;-67
2022/10/25 07:14:14;;;;;;;6.68;1.60;;;;;;;15.03;74.55;96837.84;2116977;28;20321;-69
2022/10/25 07:15:15;;;;;;;3.83;1.55;;;;;;;14.72;75.42;96846.72;2100667;27;20246;-69
2022/10/25 07:16:20;;;;;;;7.55;1.35;;;;;;;14.92;75.66;96841.13;2099027;28;20406;-69
2022/10/25 07:17:21;;;;;;;7.53;2.00;;;;;;;14.84;75.21;96831.06;2099409;28;20211;-69
2022/10/25 07:18:22;;;;;;;4.30;1.33;;;;;;;15.05;74.72;96858.81;2099907;28;20303;-69
2022/10/25 07:19:24;;;;;;;7.95;1.38;;;;;;;15.10;74.94;96839.19;2100392;28;20291;-68
2022/10/25 07:29:21;;;;;;;4.18;1.20;;;;;;;15.51;74.21;96854.25;2092912;27;20568;-66
2022/10/25 07:30:23;;;;;;;6.10;1.40;;;;;;;15.49;73.71;96850.84;2079262;28;20729;-67
2022/10/25 07:31:32;;;;;;;5.93;1.73;;;;;;;15.83;72.96;96867.22;2079155;28;20202;-66
2022/10/25 07:32:34;;;;;;;8.98;1.30;;;;;;;15.95;72.43;96865.59;2080957;28;20202;-67
2022/10/25 07:33:42;;;;;;;9.70;1.60;;;;;;;16.00;72.02;96853.00;2082269;28;20209;-67
2022/10/25 07:40:05;;;;;;;4.32;1.13;;;;;;;15.80;72.09;96854.22;2074465;28;20807;-67
2022/10/25 07:41:07;;;;;;;8.73;1.30;;;;;;;16.05;71.90;96862.38;2083069;28;20307;-67
2022/10/25 07:42:09;;;;;;;11.02;1.83;;;;;;;16.06;70.89;96858.81;2079180;28;20455;-67
2022/10/25 07:43:11;;;;;;;11.32;1.42;;;;;;;16.30;70.86;96859.91;2080148;28;20606;-67
2022/10/25 07:44:12;;;;;;;5.97;1.70;;;;;;;16.42;70.21;96839.78;2078972;28;20224;-66
2022/10/25 07:45:19;;;;;;;4.97;1.73;;;;;;;16.76;70.06;96853.41;2082212;28;20244;-67
2022/10/25 07:46:26;;;;;;;10.48;2.00;;;;;;;16.71;69.63;96863.41;2082278;28;20197;-67
2022/10/25 07:47:28;;;;;;;7.07;1.55;;;;;;;16.53;70.01;96848.78;2082721;28;20289;-67
2022/10/25 07:48:29;;;;;;;4.30;1.63;;;;;;;16.62;70.02;96862.22;2082351;28;20340;-67
2022/10/25 07:49:30;;;;;;;4.30;1.52;;;;;;;16.31;70.64;96860.72;2078602;28;20204;-67
2022/10/25 07:50:33;;;;;;;30.98;2.00;;;;;;;16.10;71.40;96849.75;2079550;28;20606;-67
2022/10/25 07:51:34;;;;;;;3.55;1.15;;;;;;;16.28;71.00;96858.31;2082499;28;20289;-67
2022/10/25 07:52:36;;;;;;;7.85;1.38;;;;;;;15.95;72.00;96868.25;2083348;28;20771;-66
2022/10/25 07:53:37;;;;;;;9.93;1.50;;;;;;;16.19;71.88;96854.47;2080993;28;20289;-67
2022/10/25 07:54:39;;;;;;;6.28;1.55;;;;;;;16.45;71.17;96852.75;2083111;28;20707;-68
2022/10/25 07:55:40;;;;;;;5.22;1.60;;;;;;;16.61;70.09;96855.25;2081595;28;20548;-67
2022/10/25 07:56:42;;;;;;;4.65;1.50;;;;;;;16.75;69.46;96850.88;2078938;28;20201;-67
2022/10/25 07:57:43;;;;;;;4.47;1.40;;;;;;;16.84;69.16;96852.06;2079259;28;20233;-67
2022/10/25 07:58:45;;;;;;;3.83;1.30;;;;;;;16.84;69.22;96850.25;2082100;28;20292;-66
2022/10/25 07:59:46;;;;;;;3.67;1.20;;;;;;;17.07;68.67;96855.81;2080919;28;20633;-67
2022/10/25 08:00:48;;;;;;;3.78;1.45;;;;;;;16.89;68.76;96844.69;2080950;28;20209;-70
2022/10/25 08:01:49;;;;;;;7.40;1.45;;;;;;;16.88;69.48;96850.91;2081034;28;20640;-66
2022/10/25 08:02:51;;;;;;;4.97;1.40;;;;;;;17.24;68.30;96854.66;2081815;28;20198;-66
2022/10/25 08:03:55;;;;;;;4.15;1.95;;;;;;;17.90;67.10;96851.84;2081405;28;20285;-67
2022/10/25 08:10:05;;;;;;;7.65;1.60;;;;;;;17.32;67.47;96865.53;2082383;28;20576;-66
2022/10/25 08:11:07;;;;;;;6.38;1.60;;;;;;;17.97;66.33;96860.19;2082124;28;20259;-66
2022/10/25 08:12:08;;;;;;;5.00;1.70;;;;;;;18.09;65.86;96856.69;2079043;28;20201;-67
2022/10/25 08:13:10;;;;;;;6.95;1.33;;;;;;;18.02;65.76;96872.16;2079546;28;20209;-66
2022/10/25 08:14:12;;;;;;;7.38;1.80;;;;;;;17.68;66.84;96861.28;2083080;28;20214;-67
2022/10/25 08:15:15;;;;;;;6.03;1.25;;;;;;;18.03;65.38;96863.28;2082502;28;20223;-67
2022/10/25 08:16:17;;;;;;;7.55;1.60;;;;;;;18.43;64.68;96862.19;2082595;28;20281;-67
2022/10/25 08:17:18;;;;;;;8.45;1.73;;;;;;;18.55;64.58;96858.66;2081035;28;20268;-67
2022/10/25 08:18:20;;;;;;;3.20;1.50;;;;;;;18.91;63.79;96864.00;2080689;28;20287;-67
2022/10/25 08:19:22;;;;;;;5.57;1.67;;;;;;;18.48;63.54;96862.69;2081956;28;20277;-66
2022/10/25 08:20:23;;;;;;;9.95;1.98;;;;;;;18.07;66.27;96855.97;2078862;28;20230;-66
2022/10/25 08:21:47;;;;;;;8.82;1.85;;;;;;;19.24;63.09;96862.41;2082278;28;20254;-66
2022/10/25 08:28:03;;;;;;;8.50;1.50;;;;;;;19.42;62.43;96865.44;2081391;28;20649;-66
2022/10/25 08:29:05;;;;;;;5.68;1.50;;;;;;;20.50;58.96;96869.34;2081316;28;20262;-66
2022/10/25 08:30:07;;;;;;;4.10;1.10;;;;;;;20.64;58.81;96866.41;2082149;28;20762;-67
2022/10/25 08:31:09;;;;;;;7.40;1.60;;;;;;;19.70;59.63;96864.13;2083015;28;20295;-67
2022/10/25 08:32:10;;;;;;;9.65;1.40;;;;;;;20.07;59.48;96873.66;2082781;28;20650;-66
2022/10/25 08:33:12;;;;;;;6.35;1.60;;;;;;;20.74;58.23;96865.69;2081568;28;20301;-66
2022/10/25 08:34:13;;;;;;;6.70;1.40;;;;;;;20.58;58.01;96861.59;2078077;28;20201;-67
2022/10/25 08:35:15;;;;;;;9.57;1.50;;;;;;;21.09;57.46;96872.53;2077161;28;20225;-66
2022/10/25 08:36:16;;;;;;;6.55;1.20;;;;;;;21.20;57.14;96868.00;2078505;28;20248;-66
2022/10/25 08:37:17;;;;;;;5.90;1.48;;;;;;;21.47;56.47;96873.75;2078804;28;20289;-66
2022/10/25 08:38:19;;;;;;;8.55;1.80;;;;;;;20.98;56.72;96865.47;2080499;28;20776;-66
2022/10/25 08:39:20;;;;;;;8.35;1.80;;;;;;;21.12;56.71;96866.97;2082563;28;20232;-66
2022/10/25 08:47:39;;;;;;;7.63;1.80;;;;;;;20.80;56.83;96875.81;2077041;28;20314;-65
2022/10/25 08:48:48;;;;;;;8.45;2.03;;;;;;;20.70;58.14;96873.91;2077339;28;20725;-66
2022/10/25 08:49:54;;;;;;;12.45;1.50;;;;;;;21.20;57.26;96878.63;2077966;28;20312;-66
2022/10/25 08:51:06;;;;;;;4.82;1.30;;;;;;;21.45;56.08;96857.09;2076582;28;20786;-66
2022/10/25 08:52:30;;;;;;;8.90;1.40;;;;;;;21.96;54.58;96852.75;2077451;28;20593;-66
2022/10/25 08:53:39;;;;;;;7.57;1.98;;;;;;;22.20;54.46;96879.00;2076153;28;20198;-66
2022/10/25 08:54:43;;;;;;;6.53;1.58;;;;;;;21.99;54.40;96863.09;2076542;28;20558;-66
2022/10/25 08:55:46;;;;;;;3.15;1.02;;;;;;;21.91;54.07;96847.81;2076914;28;20222;-66
2022/10/25 08:57:23;;;;;;;5.43;1.30;;;;;;;22.18;53.43;96875.63;2076115;28;20202;-66
2022/10/25 08:58:34;;;;;;;4.03;1.20;;;;;;;22.43;53.54;96874.31;2076539;28;20577;-65
2022/10/25 08:59:39;;;;;;;5.38;1.70;;;;;;;22.59;53.19;96847.16;2073853;28;20222;-66
2022/10/25 09:00:44;;;;;;;4.10;1.25;;;;;;;22.93;52.44;96865.41;2075602;28;20286;-65
2022/10/25 09:01:51;;;;;;;7.05;1.95;;;;;;;23.17;51.40;96873.94;2075773;28;20234;-66
2022/10/25 09:03:01;;;;;;;3.67;1.20;;;;;;;23.17;51.96;96863.31;2076739;28;20214;-66
2022/10/25 09:10:22;;;;;;;8.23;1.50;;;;;;;22.77;52.13;96876.59;2075603;28;20250;-66
2022/10/25 09:11:47;;;;;;;3.05;1.20;;;;;;;22.46;53.14;96882.03;2076048;28;20236;-66
2022/10/25 09:13:02;;;;;;;6.53;1.50;;;;;;;22.58;53.49;96876.59;2076849;28;20238;-66
2022/10/25 09:14:30;;;;;;;6.90;1.25;;;;;;;22.38;54.54;96854.44;2076600;28;20206;-66
2022/10/25 09:15:42;;;;;;;3.50;1.13;;;;;;;23.56;50.61;96880.03;2078632;28;20285;-66
2022/10/25 09:28:17;;;;;;;5.40;1.10;;;;;;;24.26;50.25;96885.00;2075794;28;20185;-66
2022/10/25 09:29:27;;;;;;;3.22;1.20;;;;;;;24.23;50.42;96879.94;2076608;28;20645;-65
2022/10/25 09:30:36;;;;;;;6.00;1.25;;;;;;;23.55;50.72;96878.34;2077168;28;20336;-65
2022/10/25 09:31:47;;;;;;;6.03;1.67;;;;;;;23.99;48.72;96883.16;2076824;28;20205;-67
2022/10/25 09:32:53;;;;;;;4.28;1.55;;;;;;;23.26;50.37;96879.28;2076991;28;20655;-66
2022/10/25 09:34:05;;;;;;;4.63;1.40;;;;;;;23.14;51.17;96875.88;2076938;28;20602;-66
2022/10/25 09:35:15;;;;;;;2.58;1.25;;;;;;;23.04;50.87;96871.56;2075394;28;20320;-66
2022/10/25 09:36:17;;;;;;;7.95;1.10;;;;;;;22.48;52.00;96877.41;2073838;28;20237;-66
2022/10/25 09:37:27;;;;;;;5.55;1.50;;;;;;;23.02;51.73;96873.50;2079035;28;20209;-66
2022/10/25 09:38:40;;;;;;;5.78;1.25;;;;;;;22.72;51.50;96873.50;2076651;28;20197;-66
2022/10/25 09:39:48;;;;;;;9.30;2.28;;;;;;;22.67;52.47;96878.41;2076057;28;20589;-66
2022/10/25 09:41:00;;;;;;;5.90;1.27;;;;;;;22.52;52.00;96880.63;2077381;28;20802;-66
2022/10/25 09:42:04;;;;;;;3.80;1.23;;;;;;;23.03;51.39;96875.19;2075586;28;20285;-66
2022/10/25 09:43:15;;;;;;;4.40;1.45;;;;;;;23.37;50.57;96882.75;2072967;28;20674;-66
2022/10/25 09:44:35;;;;;;;5.55;1.23;;;;;;;22.50;51.65;96880.78;2074343;28;20206;-66
2022/10/25 09:45:46;;;;;;;4.00;1.00;;;;;;;23.28;50.65;96882.63;2075655;28;20246;-65
2022/10/25 09:46:53;;;;;;;13.00;1.70;;;;;;;23.38;51.06;96887.13;2068158;28;20666;-66
2022/10/25 09:48:07;;;;;;;7.22;1.65;;;;;;;22.48;53.01;96879.22;2068111;28;20256;-66
2022/10/25 09:49:35;;;;;;;10.02;1.10;;;;;;;21.13;56.04;96884.59;2076733;28;20284;-66
2022/10/25 09:50:49;;;;;;;3.72;1.00;;;;;;;20.31;58.42;96893.88;2075920;28;20820;-66
2022/10/25 09:51:56;;;;;;;9.77;1.35;;;;;;;19.64;59.36;96855.81;2067083;28;20400;-65
2022/10/25 09:58:03;;;;;;;6.43;1.02;;;;;;;18.52;63.58;96879.19;2077862;28;20183;-66
2022/10/25 09:59:12;;;;;;;5.05;1.25;;;;;;;18.97;62.63;96876.75;2074074;28;20209;-65
2022/10/25 10:00:14;;;;;;;5.03;1.30;;;;;;;18.68;62.51;96853.28;2071835;28;20847;-66
2022/10/25 10:01:22;;;;;;;9.15;1.48;;;;;;;19.73;59.52;96876.28;2072836;28;20241;-66
2022/10/25 10:02:25;;;;;;;3.67;1.05;;;;;;;19.23;60.96;96884.53;2076121;28;20248;-65
2022/10/25 10:03:30;;;;;;;8.88;1.67;;;;;;;18.52;63.10;96874.72;2077068;28;20202;-66
2022/10/25 10:04:37;;;;;;;3.80;1.35;;;;;;;18.26;63.64;96880.13;2072708;28;20230;-65
2022/10/25 10:05:56;;;;;;;7.38;1.50;;;;;;;18.14;65.49;96880.16;2074630;28;20693;-66
2022/10/25 10:07:07;;;;;;;2.47;1.00;;;;;;;18.82;63.57;96878.72;2075146;28;20591;-66
2022/10/25 10:08:08;;;;;;;6.35;1.50;;;;;;;19.97;60.16;96878.00;2074976;28;20738;-66
2022/10/25 10:09:13;;;;;;;4.50;1.05;;;;;;;19.89;60.05;96882.09;2075959;28;20293;-66
2022/10/25 10:10:19;;;;;;;7.38;1.88;;;;;;;19.62;61.22;96882.44;2074991;28;20265;-66
2022/10/25 10:11:21;;;;;;;6.40;1.20;;;;;;;20.78;57.53;96878.56;2077168;28;20705;-66
2022/10/25 10:12:29;;;;;;;11.50;1.85;;;;;;;21.13;57.77;96868.66;2076950;28;20240;-65
2022/10/25 10:13:52;;;;;;;5.13;1.38;;;;;;;21.81;54.87;96878.84;2076320;28;20290;-65
2022/10/25 10:15:03;;;;;;;4.78;1.48;;;;;;;21.71;54.55;96883.28;2074969;28;20279;-66
2022/10/25 10:16:20;;;;;;;6.10;1.45;;;;;;;21.87;54.68;96883.63;2076501;28;20221;-65
2022/10/25 10:17:23;;;;;;;3.42;1.20;;;;;;;22.31;53.32;96854.94;2074755;28;20286;-66
2022/10/25 10:18:28;;;;;;;12.95;1.45;;;;;;;23.06;51.97;96872.22;2076801;28;20293;-65
2022/10/25 10:19:33;;;;;;;6.20;1.70;;;;;;;23.66;50.89;96865.88;2074288;28;20228;-66
2022/10/25 10:20:35;;;;;;;9.35;1.30;;;;;;;23.62;49.99;96850.16;2075506;28;20212;-65
2022/10/25 10:21:40;;;;;;;6.05;1.42;;;;;;;23.94;47.95;96864.94;2076640;28;20302;-66
2022/10/25 10:22:47;;;;;;;15.60;1.63;;;;;;;23.37;48.16;96877.44;2075636;28;20232;-66
2022/10/25 10:24:04;;;;;;;4.45;1.60;;;;;;;24.09;48.24;96878.63;2075715;28;20215;-66
2022/10/25 10:25:15;;;;;;;11.70;1.75;;;;;;;25.44;47.50;96876.13;2075238;28;20255;-65
2022/10/25 10:26:34;;;;;;;7.97;1.85;;;;;;;26.03;45.94;96870.97;2074593;28;20249;-66
2022/10/25 10:27:35;;;;;;;5.32;1.60;;;;;;;26.62;44.71;96872.03;2076676;28;20252;-66
2022/10/25 10:28:42;;;;;;;9.65;1.10;;;;;;;26.44;45.59;96874.81;2075400;28;20325;-66
2022/10/25 10:30:06;;;;;;;15.48;2.00;;;;;;;26.14;46.72;96872.53;2075884;28;20305;-65
2022/10/25 10:31:08;;;;;;;2.95;0.82;;;;;;;26.90;45.23;96875.28;2076411;28;20199;-65
2022/10/25 10:32:30;;;;;;;11.77;1.10;;;;;;;27.19;43.37;96880.13;2072485;28;20231;-65
2022/10/25 10:33:32;;;;;;;4.30;1.10;;;;;;;27.72;42.40;96876.25;2073001;28;20197;-65
2022/10/25 10:46:08;;;;;;;6.63;1.30;;;;;;;21.25;56.14;96853.50;2075507;28;20297;-65
2022/10/25 10:47:18;;;;;;;8.30;1.00;;;;;;;20.53;57.45;96861.13;2074088;28;20705;-65
2022/10/25 10:48:22;;;;;;;6.18;1.73;;;;;;;19.75;60.00;96859.28;2071747;28;20789;-66
2022/10/25 10:49:34;;;;;;;6.03;1.10;;;;;;;20.08;59.62;96855.97;2071370;28;20196;-65
2022/10/25 10:50:36;;;;;;;5.93;1.23;;;;;;;20.11;60.38;96855.69;2075051;28;20369;-65
2022/10/25 10:51:43;;;;;;;8.25;1.80;;;;;;;19.72;60.18;96856.06;2076738;28;20285;-65
2022/10/25 10:52:47;;;;;;;10.07;1.40;;;;;;;19.90;62.16;96859.94;2077482;28;20224;-65
2022/10/25 10:53:49;;;;;;;5.00;1.20;;;;;;;20.56;60.80;96858.25;2076097;28;20199;-65
2022/10/25 10:54:51;;;;;;;6.75;1.15;;;;;;;20.66;59.34;96853.03;2074686;28;20313;-65
2022/10/25 10:55:54;;;;;;;7.38;1.27;;;;;;;20.01;60.43;96851.16;2075481;28;20721;-65
2022/10/25 10:56:59;;;;;;;7.22;1.52;;;;;;;19.67;62.29;96843.19;2076442;28;20698;-65
2022/10/25 10:58:30;;;;;;;5.95;1.20;;;;;;;19.04;62.91;96840.09;2076538;28;20202;-65
2022/10/25 10:59:39;;;;;;;6.15;1.45;;;;;;;19.38;63.75;96846.28;2075105;28;20285;-65
2022/10/25 11:00:50;;;;;;;14.82;1.50;;;;;;;19.08;62.33;96846.81;2075825;28;20216;-65
2022/10/25 11:01:52;;;;;;;6.53;1.40;;;;;;;19.21;64.47;96842.28;2075985;28;20347;-65
2022/10/25 11:02:54;;;;;;;7.70;2.20;;;;;;;19.42;63.50;96837.13;2072443;28;20225;-65
2022/10/25 11:03:58;;;;;;;2.95;0.90;;;;;;;21.12;60.25;96843.06;2073642;28;20214;-65
2022/10/25 11:10:12;;;;;;;4.82;1.45;;;;;;;20.33;60.24;96847.69;2075701;28;20183;-65
2022/10/25 11:11:19;;;;;;;4.88;1.00;;;;;;;19.83;61.59;96847.28;2076611;28;20575;-65
2022/10/25 11:12:21;;;;;;;5.03;1.30;;;;;;;19.89;61.95;96847.63;2075085;28;20197;-65
2022/10/25 11:13:24;;;;;;;9.07;1.20;;;;;;;19.73;61.83;96842.69;2075378;28;20230;-65
2022/10/25 11:14:25;;;;;;;4.10;0.98;;;;;;;19.60;62.62;96841.97;2071755;28;20662;-65
2022/10/25 11:15:28;;;;;;;3.67;0.88;;;;;;;19.37;61.76;96846.41;2075613;28;20289;-65
2022/10/25 11:16:41;;;;;;;5.72;1.15;;;;;;;18.99;63.59;96850.19;2074520;28;20293;-65
2022/10/25 11:17:56;;;;;;;4.85;1.42;;;;;;;18.77;64.33;96842.00;2075458;28;20698;-65
2022/10/25 11:19:23;;;;;;;4.90;1.10;;;;;;;18.93;64.02;96839.09;2075865;28;20209;-65
2022/10/25 11:20:46;;;;;;;7.38;1.30;;;;;;;18.46;65.06;96847.91;2074109;28;20633;-65
2022/10/25 11:22:09;;;;;;;3.85;1.20;;;;;;;18.67;66.38;96848.13;2074181;28;20287;-66
2022/10/25 11:23:38;;;;;;;4.25;1.10;;;;;;;18.73;67.06;96839.72;2074724;28;20250;-65
2022/10/25 11:25:24;;;;;;;4.13;0.98;;;;;;;18.21;65.98;96847.06;2069332;28;20291;-65
2022/10/25 11:26:45;;;;;;;3.72;0.90;;;;;;;18.43;66.86;96841.88;2071854;28;20284;-64
2022/10/25 11:27:56;;;;;;;2.47;1.35;;;;;;;18.48;67.56;96846.00;2073458;28;20287;-65
2022/10/25 11:29:28;;;;;;;11.88;1.15;;;;;;;18.60;66.77;96840.63;2073794;28;20278;-65
2022/10/25 11:30:48;;;;;;;6.72;1.60;;;;;;;18.74;65.78;96844.91;2074310;28;20300;-65
2022/10/25 11:32:12;;;;;;;7.82;1.27;;;;;;;18.71;67.14;96842.47;2075781;28;20235;-65
2022/10/25 11:33:31;;;;;;;4.18;1.10;;;;;;;19.88;64.56;96847.78;2074149;28;20628;-65
2022/10/25 11:35:20;;;;;;;5.80;1.15;;;;;;;19.87;63.14;96846.09;2071606;28;20296;-65
2022/10/25 11:36:33;;;;;;;6.22;1.40;;;;;;;19.41;63.82;96834.59;2052387;28;20309;-65
2022/10/25 11:37:42;;;;;;;3.20;0.90;;;;;;;19.23;64.10;96840.34;2053042;28;20281;-65
2022/10/25 11:39:06;;;;;;;7.82;1.35;;;;;;;19.11;63.85;96848.41;2054148;28;20298;-65
2022/10/25 11:40:17;;;;;;;5.95;1.25;;;;;;;18.74;66.36;96849.31;2053775;28;20702;-65
2022/10/25 11:41:36;;;;;;;5.03;1.10;;;;;;;18.87;65.10;96849.28;2053003;28;20293;-65
2022/10/25 11:43:06;;;;;;;9.43;1.20;;;;;;;18.74;66.12;96847.53;2075855;28;20237;-65
2022/10/25 11:44:36;;;;;;;5.30;1.25;;;;;;;18.72;66.33;96846.81;2075250;28;20208;-65
2022/10/25 11:45:45;;;;;;;6.05;1.17;;;;;;;18.30;66.13;96850.81;2076382;28;20265;-65
2022/10/25 11:47:00;;;;;;;6.95;1.20;;;;;;;18.41;66.68;96835.00;2074990;28;20217;-65
2022/10/25 11:48:39;;;;;;;5.28;1.13;;;;;;;18.27;64.32;96842.16;2074941;28;20212;-65
2022/10/25 11:50:11;;;;;;;5.82;1.35;;;;;;;18.07;63.84;96848.88;2073371;28;20636;-65
2022/10/25 11:51:40;;;;;;;5.15;1.30;;;;;;;17.42;66.16;96811.16;2076598;28;20282;-65
2022/10/25 11:52:41;;;;;;;5.55;1.13;;;;;;;18.06;65.67;96849.00;2075088;28;20290;-65
2022/10/25 11:54:04;;;;;;;9.63;1.55;;;;;;;18.22;63.54;96846.94;2075897;28;20844;-65
2022/10/25 11:55:29;;;;;;;7.60;1.42;;;;;;;18.76;63.52;96845.63;2075975;28;20258;-66
2022/10/25 11:56:50;;;;;;;7.63;1.50;;;;;;;19.47;61.55;96844.72;2068682;28;20235;-65
2022/10/25 11:57:59;;;;;;;17.83;5.90;;;;;;;18.91;65.82;96848.13;2071346;28;20232;-66
2022/10/25 11:59:44;;;;;;;6.90;1.52;;;;;;;19.45;64.29;96837.88;2075343;28;20756;-65
2022/10/25 12:00:54;;;;;;;15.20;2.03;;;;;;;19.41;63.35;96842.56;2071686;28;20298;-65
2022/10/25 12:01:58;;;;;;;6.13;1.40;;;;;;;19.33;62.86;96851.09;2072010;28;20592;-65
2022/10/25 12:03:06;;;;;;;4.47;1.23;;;;;;;19.35;62.37;96849.19;2071878;28;20294;-65
2022/10/25 12:04:32;;;;;;;5.30;1.33;;;;;;;19.17;61.62;96845.28;2071183;28;20258;-65
2022/10/25 12:06:32;;;;;;;10.00;1.67;;;;;;;19.04;63.51;96848.03;2071247;28;20232;-66
2022/10/25 12:07:48;;;;;;;5.82;1.40;;;;;;;18.90;62.55;96847.25;2040610;28;20643;-65
2022/10/25 12:09:00;;;;;;;8.93;1.48;;;;;;;17.51;63.26;96836.06;2071910;28;20237;-65
2022/10/25 12:10:04;;;;;;;9.13;2.47;;;;;;;17.49;65.24;96842.41;2074631;28;20251;-65
2022/10/25 12:11:18;;;;;;;11.27;1.42;;;;;;;17.16;66.93;96839.34;2071908;28;20223;-65
2022/10/25 12:12:25;;;;;;;8.70;1.40;;;;;;;17.68;65.99;96834.06;2075091;28;20308;-65
2022/10/25 12:13:31;;;;;;;4.35;0.85;;;;;;;20.10;61.53;96841.63;2076127;28;20235;-65
2022/10/25 12:14:37;;;;;;;6.47;1.50;;;;;;;21.55;56.30;96852.72;2075652;28;20227;-65
2022/10/25 12:15:41;;;;;;;8.30;1.10;;;;;;;20.74;55.62;96847.13;2075924;28;20286;-65
2022/10/25 12:16:44;;;;;;;10.48;1.40;;;;;;;21.27;56.29;96839.13;2076994;28;20236;-65
2022/10/25 12:17:46;;;;;;;9.30;0.95;;;;;;;21.61;55.07;96833.59;2077040;28;20206;-65
2022/10/25 12:19:07;;;;;;;3.50;1.02;;;;;;;22.56;53.77;96839.44;2076589;28;20620;-65
2022/10/25 12:20:19;;;;;;;12.82;1.67;;;;;;;23.48;50.95;96845.28;2075458;28;20224;-65
2022/10/25 12:21:29;;;;;;;5.55;1.00;;;;;;;24.21;50.29;96828.56;2075300;28;20639;-64
2022/10/25 12:29:13;;;;;;;4.47;1.10;;;;;;;25.20;47.90;96828.66;2077424;28;20230;-65
2022/10/25 12:30:17;;;;;;;10.13;1.20;;;;;;;25.49;47.90;96831.06;2076000;28;20318;-65
2022/10/25 12:31:24;;;;;;;7.68;1.38;;;;;;;25.20;48.09;96834.00;2076884;28;20208;-65
2022/10/25 12:32:37;;;;;;;5.07;1.40;;;;;;;25.53;47.60;96826.25;2077428;28;20329;-65
2022/10/25 12:33:42;;;;;;;5.15;1.25;;;;;;;25.70;46.57;96832.50;2077572;28;20227;-65
2022/10/25 12:34:48;;;;;;;5.60;1.48;;;;;;;26.18;45.10;96830.22;2074747;28;20277;-65
2022/10/25 12:35:57;;;;;;;10.50;1.58;;;;;;;25.70;45.89;96824.47;2077529;28;20534;-66
2022/10/25 12:37:13;;;;;;;4.15;0.90;;;;;;;25.31;46.72;96817.72;2075632;28;20287;-66
2022/10/25 12:38:24;;;;;;;8.40;1.40;;;;;;;25.30;46.31;96823.25;2077477;28;20288;-66
2022/10/25 12:39:39;;;;;;;2.95;1.02;;;;;;;24.85;46.41;96828.56;2075708;28;20661;-66
2022/10/25 12:40:46;;;;;;;2.97;1.00;;;;;;;25.47;45.63;96834.88;2073281;28;20331;-67
2022/10/25 12:41:54;;;;;;;3.45;1.00;;;;;;;25.39;47.47;96830.34;2074462;28;20205;-66
2022/10/25 12:43:15;;;;;;;3.05;0.98;;;;;;;25.86;46.60;96821.88;2076622;28;20197;-67
2022/10/25 12:44:41;;;;;;;6.63;1.63;;;;;;;25.21;47.62;96825.00;2076401;28;20220;-66
2022/10/25 12:46:02;;;;;;;6.80;1.67;;;;;;;23.88;50.68;96828.16;2069182;28;20261;-66
2022/10/25 13:05:21;;;;;;;7.00;1.95;;;;;;;23.64;52.36;96818.00;2076002;28;20388;-65
2022/10/25 13:06:32;;;;;;;7.38;1.40;;;;;;;23.40;53.11;96815.84;2076652;28;20241;-65
2022/10/25 13:07:35;;;;;;;6.05;1.20;;;;;;;23.61;51.66;96823.66;2076927;28;20281;-64
2022/10/25 13:08:38;;;;;;;8.20;1.38;;;;;;;24.26;50.34;96791.63;2073006;28;20249;-65
2022/10/25 13:09:44;;;;;;;8.05;1.15;;;;;;;24.61;49.30;96819.31;2073171;28;20759;-64
2022/10/25 13:22:10;;;;;;;8.00;2.35;;;;;;;24.51;50.79;96818.56;2076555;28;20233;-64
2022/10/25 13:23:55;;;;;;;8.68;1.30;;;;;;;24.69;49.06;96823.09;2076709;28;20360;-64
2022/10/25 13:25:05;;;;;;;7.38;1.73;;;;;;;23.46;49.47;96826.78;2075418;28;20676;-64
2022/10/25 13:26:12;;;;;;;9.32;1.38;;;;;;;23.37;51.21;96813.50;2072920;28;20292;-64
2022/10/25 13:27:14;;;;;;;7.20;1.40;;;;;;;23.58;50.73;96819.47;2074656;28;20284;-64
2022/10/25 13:28:15;;;;;;;3.33;0.93;;;;;;;23.95;50.18;96815.13;2075416;28;20201;-64
2022/10/25 13:29:47;;;;;;;6.55;1.30;;;;;;;23.80;49.65;96820.06;2077070;28;20259;-64
2022/10/25 13:30:49;;;;;;;6.15;1.02;;;;;;;24.01;49.68;96811.00;2074526;28;20730;-64
2022/10/25 13:32:04;;;;;;;8.13;1.35;;;;;;;23.90;50.72;96812.84;2073901;28;20196;-64
2022/10/25 13:33:21;;;;;;;6.15;1.20;;;;;;;24.34;48.42;96816.69;2077274;28;20647;-63
2022/10/25 13:41:17;;;;;;;10.10;1.00;;;;;;;24.28;47.33;96808.31;2078099;28;20220;-65
2022/10/25 13:42:32;;;;;;;7.53;1.85;;;;;;;24.85;44.74;96801.88;2072735;28;20224;-64
2022/10/25 13:43:35;;;;;;;3.80;1.17;;;;;;;24.73;46.88;96787.09;2066351;28;20342;-65
2022/10/25 13:44:48;;;;;;;5.45;1.55;;;;;;;25.31;46.01;96774.97;2061272;28;20689;-65
2022/10/25 13:45:54;;;;;;;7.30;1.30;;;;;;;25.11;44.66;96793.03;2069147;28;20701;-65
2022/10/25 13:46:55;;;;;;;5.00;1.13;;;;;;;24.97;45.79;96786.44;2076085;28;20237;-65
2022/10/25 13:48:06;;;;;;;6.75;1.80;;;;;;;24.37;47.31;96797.75;2075392;28;20820;-65
2022/10/25 13:49:31;;;;;;;5.07;1.00;;;;;;;24.08;47.38;96794.25;2076071;28;20296;-65
2022/10/25 13:50:42;;;;;;;5.20;1.23;;;;;;;24.74;47.32;96794.94;2073364;28;20577;-65
2022/10/25 13:51:47;;;;;;;15.13;1.40;;;;;;;23.73;47.62;96786.97;2074753;28;20292;-65
2022/10/25 13:53:07;;;;;;;5.18;1.25;;;;;;;23.90;48.40;96798.69;2076790;28;20229;-65
2022/10/25 13:54:10;;;;;;;5.63;1.10;;;;;;;24.57;46.71;96785.06;2076876;28;20240;-64
2022/10/25 13:55:15;;;;;;;8.38;1.17;;;;;;;24.52;47.90;96792.69;2076556;28;20226;-64
2022/10/25 13:56:32;;;;;;;4.88;1.15;;;;;;;24.34;45.73;96777.53;2076042;28;20245;-65
2022/10/25 13:57:43;;;;;;;9.90;1.70;;;;;;;24.42;46.79;96790.13;2076769;28;20229;-65
2022/10/25 13:58:52;;;;;;;7.03;1.17;;;;;;;25.02;45.30;96794.00;2072783;28;20527;-65
2022/10/25 13:59:53;;;;;;;4.72;1.13;;;;;;;25.24;44.08;96795.28;2075346;28;20675;-65
2022/10/25 14:01:13;;;;;;;5.03;1.10;;;;;;;24.97;45.90;96796.28;2075790;28;20202;-64
2022/10/25 14:02:20;;;;;;;5.05;1.42;;;;;;;24.89;44.72;96792.56;2077893;28;20193;-65
2022/10/25 14:03:44;;;;;;;6.78;1.17;;;;;;;25.17;43.63;96791.59;2076104;28;20202;-64
2022/10/25 14:04:45;;;;;;;4.45;0.98;;;;;;;25.29;44.08;96786.81;2071236;28;20222;-64
2022/10/25 14:05:53;;;;;;;8.60;1.50;;;;;;;25.33;44.52;96798.84;2071988;28;20202;-64
2022/10/25 14:07:40;;;;;;;2.92;1.13;;;;;;;24.62;45.38;96794.31;2076132;28;20256;-64
2022/10/25 14:09:08;;;;;;;10.18;1.40;;;;;;;24.12;47.18;96795.66;2076158;28;20201;-64
2022/10/25 14:10:18;;;;;;;5.78;1.42;;;;;;;23.72;47.26;96787.97;2075825;28;20250;-63
2022/10/25 14:11:42;;;;;;;3.50;0.90;;;;;;;24.10;47.35;96794.97;2076319;28;20213;-64
2022/10/25 14:12:52;;;;;;;7.10;1.08;;;;;;;24.05;46.61;96799.03;2075940;28;20329;-64
2022/10/25 14:13:59;;;;;;;5.10;1.10;;;;;;;24.22;45.66;96800.09;2072641;28;20221;-64
2022/10/25 14:15:36;;;;;;;2.00;0.80;;;;;;;24.84;44.64;96792.19;2073817;28;20800;-64
2022/10/25 14:16:46;;;;;;;3.53;1.27;;;;;;;23.51;47.91;96794.38;2075410;28;20233;-65
2022/10/25 14:17:47;;;;;;;5.50;1.45;;;;;;;24.15;46.18;96781.19;2076165;28;20421;-64
2022/10/25 14:18:50;;;;;;;3.75;0.93;;;;;;;24.87;44.67;96783.03;2076195;28;20291;-64
2022/10/25 14:19:57;;;;;;;7.55;1.40;;;;;;;23.63;46.26;96784.38;2074857;28;20259;-64
2022/10/25 14:21:04;;;;;;;3.30;1.20;;;;;;;23.93;46.45;96779.75;2075018;28;20730;-64
2022/10/25 14:22:19;;;;;;;2.40;0.95;;;;;;;24.70;44.98;96777.56;2071762;28;20205;-64
2022/10/25 14:23:23;;;;;;;3.88;1.00;;;;;;;24.73;44.38;96773.72;2073159;28;20232;-65
2022/10/25 14:24:24;;;;;;;4.95;1.52;;;;;;;24.77;45.03;96780.44;2074904;28;20287;-64
2022/10/25 14:25:40;;;;;;;4.57;1.20;;;;;;;24.58;46.07;96781.41;2075349;28;20284;-64
2022/10/25 14:26:57;;;;;;;10.38;1.77;;;;;;;24.73;46.59;96777.22;2076160;28;20626;-64
2022/10/25 14:28:15;;;;;;;2.20;0.90;;;;;;;24.04;46.95;96778.72;2076503;28;20228;-64